Time;durP1;ratioP1;P1;durP2;ratioP2;P2;SDS_P1;SDS_P2;PMS_P1;PMS_P2;Temp;Humidity;BMP_temperature;BMP_pressure;BME280_temperature;BME280_humidity;BME280_pressure;Samples;Min_cycle;Max_cycle;Signal;HPM_P1;HPM_P2
2021/01/22 00:00:05;;;;;;;;;;;9.50;88.20;;;;;;5028845;28;19915;-77
2021/01/22 00:02:31;;;;;;;;;;;9.50;88.40;;;;;;5033598;28;19905;-77
2021/01/22 00:04:56;;;;;;;;;;;9.50;88.40;;;;;;5031599;28;19921;-77
2021/01/22 00:07:22;;;;;;;;;;;9.50;88.80;;;;;;5032063;28;20312;-77
2021/01/22 00:09:47;;;;;;;;;;;9.50;89.00;;;;;;5032806;28;19959;-76
2021/01/22 00:12:13;;;;;;;;;;;9.50;89.20;;;;;;5035999;28;19955;-77
2021/01/22 00:14:38;;;;;;;;;;;9.40;89.30;;;;;;5035697;28;20430;-76
2021/01/22 00:17:04;;;;;;;;;;;9.40;89.40;;;;;;5032583;28;19916;-77
2021/01/22 00:19:29;;;;;;;;;;;9.40;89.60;;;;;;5033361;28;20368;-77
2021/01/22 00:21:55;;;;;;;;;;;9.40;89.70;;;;;;5015006;28;20371;-77
2021/01/22 00:24:21;;;;;;;;;;;9.40;89.80;;;;;;5031885;28;20055;-76
2021/01/22 00:26:46;;;;;;;;;;;9.40;89.90;;;;;;5032799;28;19917;-79
2021/01/22 00:29:12;;;;;;;;;;;9.40;90.00;;;;;;5032811;28;19995;-80
2021/01/22 00:31:37;;;;;;;;;;;9.40;90.10;;;;;;5053061;28;20325;-78
2021/01/22 00:34:03;;;;;;;;;;;9.30;90.10;;;;;;5035528;28;19909;-77
2021/01/22 00:36:28;;;;;;;;;;;9.30;90.20;;;;;;5035609;28;19916;-77
2021/01/22 00:38:54;;;;;;;;;;;9.30;90.20;;;;;;5035331;28;20260;-77
2021/01/22 00:41:19;;;;;;;;;;;9.30;90.30;;;;;;5035392;28;20253;-77
2021/01/22 00:43:45;;;;;;;;;;;9.30;90.40;;;;;;5053774;28;19959;-76
2021/01/22 00:46:10;;;;;;;;;;;9.30;90.50;;;;;;5053074;28;19927;-77
2021/01/22 00:48:36;;;;;;;;;;;9.30;90.50;;;;;;5053608;28;19913;-76
2021/01/22 00:51:02;;;;;;;;;;;9.30;90.60;;;;;;5053549;28;19955;-77
2021/01/22 00:53:27;;;;;;;;;;;9.30;90.60;;;;;;5053292;28;19909;-77
2021/01/22 00:55:53;;;;;;;;;;;9.10;90.00;;;;;;5035516;28;19955;-78
2021/01/22 00:58:18;;;;;;;;;;;8.80;88.80;;;;;;5035645;28;19909;-78
2021/01/22 01:00:44;;;;;;;;;;;8.60;88.10;;;;;;5035539;28;19912;-76
2021/01/22 01:03:09;;;;;;;;;;;8.40;87.80;;;;;;5035872;28;20471;-77
2021/01/22 01:05:35;;;;;;;;;;;8.20;88.10;;;;;;5052910;28;19916;-76
2021/01/22 01:08:00;;;;;;;;;;;8.10;88.20;;;;;;5035297;28;20008;-78
2021/01/22 01:10:26;;;;;;;;;;;7.90;87.80;;;;;;5035083;28;19909;-78
2021/01/22 01:12:51;;;;;;;;;;;7.70;87.70;;;;;;5036082;28;19909;-82
2021/01/22 01:15:17;;;;;;;;;;;7.40;87.90;;;;;;5039499;28;19909;-77
2021/01/22 01:17:42;;;;;;;;;;;7.30;88.10;;;;;;5039510;28;20283;-77
2021/01/22 01:20:09;;;;;;;;;;;7.10;87.50;;;;;;5056856;28;20249;-77
2021/01/22 01:22:36;;;;;;;;;;;6.90;87.40;;;;;;5039080;28;19912;-75
2021/01/22 01:25:03;;;;;;;;;;;6.80;87.50;;;;;;5056847;28;19920;-77
2021/01/22 01:27:28;;;;;;;;;;;6.60;87.40;;;;;;5056020;28;19905;-82
2021/01/22 01:29:54;;;;;;;;;;;6.50;87.90;;;;;;5056251;28;19920;-78
2021/01/22 01:32:19;;;;;;;;;;;6.40;87.80;;;;;;5022488;28;19913;-77
2021/01/22 01:34:45;;;;;;;;;;;6.40;88.00;;;;;;5055952;28;20404;-77
2021/01/22 01:37:10;;;;;;;;;;;6.30;87.60;;;;;;5056286;28;20014;-78
2021/01/22 01:39:36;;;;;;;;;;;6.30;87.70;;;;;;5056166;28;19905;-77
2021/01/22 01:42:01;;;;;;;;;;;6.20;87.70;;;;;;5056715;28;19908;-76
2021/01/22 01:44:27;;;;;;;;;;;6.10;87.50;;;;;;5056459;28;19905;-76
2021/01/22 01:46:52;;;;;;;;;;;6.00;87.00;;;;;;5055993;28;19930;-76
2021/01/22 01:49:18;;;;;;;;;;;5.90;86.90;;;;;;5021755;28;19908;-77
2021/01/22 01:51:43;;;;;;;;;;;5.90;87.10;;;;;;5038084;28;19951;-77
2021/01/22 01:54:09;;;;;;;;;;;5.80;86.90;;;;;;5056244;28;19904;-76
2021/01/22 01:56:35;;;;;;;;;;;5.80;86.80;;;;;;5037779;28;19905;-82
2021/01/22 01:59:01;;;;;;;;;;;5.80;87.40;;;;;;5055626;28;20288;-81
2021/01/22 02:01:27;;;;;;;;;;;5.70;87.10;;;;;;5055905;28;19909;-76
2021/01/22 02:03:53;;;;;;;;;;;5.70;87.30;;;;;;5034440;28;19920;-78
2021/01/22 02:06:19;;;;;;;;;;;5.70;87.50;;;;;;5034693;28;20016;-77
2021/01/22 02:08:45;;;;;;;;;;;5.70;87.60;;;;;;5021125;28;19940;-78
2021/01/22 02:11:12;;;;;;;;;;;5.60;87.70;;;;;;5037988;28;19905;-77
2021/01/22 02:13:38;;;;;;;;;;;5.60;87.50;;;;;;5055483;28;20351;-80
2021/01/22 02:16:04;;;;;;;;;;;5.60;87.70;;;;;;5037785;28;19905;-77
2021/01/22 02:18:30;;;;;;;;;;;5.50;87.60;;;;;;5037884;28;20270;-78
2021/01/22 02:21:14;;;;;;;;;;;5.50;87.70;;;;;;5037183;28;19958;-79
2021/01/22 02:23:41;;;;;;;;;;;5.40;87.60;;;;;;5054613;28;19909;-78
2021/01/22 02:26:25;;;;;;;;;;;5.40;87.80;;;;;;5037774;28;19919;-78
2021/01/22 02:28:54;;;;;;;;;;;5.30;87.90;;;;;;5054173;28;20463;-78
2021/01/22 02:31:19;;;;;;;;;;;5.20;87.90;;;;;;5036904;28;19995;-78
2021/01/22 02:33:46;;;;;;;;;;;5.10;88.00;;;;;;5037097;28;20352;-79
2021/01/22 02:36:13;;;;;;;;;;;5.10;88.40;;;;;;5020401;28;19908;-77
2021/01/22 02:38:39;;;;;;;;;;;5.10;88.40;;;;;;5035598;28;20012;-83
2021/01/22 02:41:06;;;;;;;;;;;5.10;88.60;;;;;;5027964;28;20345;-78
2021/01/22 02:43:32;;;;;;;;;;;5.20;88.80;;;;;;5054796;28;19996;-78
2021/01/22 02:45:58;;;;;;;;;;;5.10;88.80;;;;;;5054275;28;20439;-77
2021/01/22 02:48:23;;;;;;;;;;;5.10;88.80;;;;;;5036623;28;19916;-77
2021/01/22 02:50:49;;;;;;;;;;;5.10;88.90;;;;;;5019440;28;20058;-79
2021/01/22 02:53:14;;;;;;;;;;;5.10;88.90;;;;;;5055307;28;20123;-78
2021/01/22 02:55:40;;;;;;;;;;;5.10;89.00;;;;;;5019697;28;19909;-85
2021/01/22 02:58:24;;;;;;;;;;;5.00;89.10;;;;;;5036331;28;20392;-77
2021/01/22 03:00:53;;;;;;;;;;;5.00;89.00;;;;;;5053715;28;19904;-78
2021/01/22 03:03:42;;;;;;;;;;;5.00;89.10;;;;;;5036253;28;19908;-78
2021/01/22 03:06:08;;;;;;;;;;;4.80;88.90;;;;;;5047843;28;19916;-78
2021/01/22 03:08:34;;;;;;;;;;;4.90;89.10;;;;;;5052914;28;19954;-78
2021/01/22 03:11:01;;;;;;;;;;;4.90;89.20;;;;;;5053169;28;19995;-79
2021/01/22 03:13:27;;;;;;;;;;;4.80;89.20;;;;;;5054208;28;19905;-78
2021/01/22 03:15:53;;;;;;;;;;;4.80;89.40;;;;;;5035400;28;19959;-77
2021/01/22 03:18:19;;;;;;;;;;;4.80;89.40;;;;;;5035694;28;19964;-79
2021/01/22 03:20:46;;;;;;;;;;;4.80;89.40;;;;;;5036164;28;19979;-83
2021/01/22 03:23:13;;;;;;;;;;;4.80;89.40;;;;;;5035873;28;19915;-79
2021/01/22 03:25:38;;;;;;;;;;;4.70;89.50;;;;;;5053376;28;20374;-78
2021/01/22 03:28:05;;;;;;;;;;;4.70;89.40;;;;;;5035427;28;20000;-81
2021/01/22 03:30:31;;;;;;;;;;;4.70;89.50;;;;;;5035461;28;19924;-77
2021/01/22 03:32:57;;;;;;;;;;;4.70;89.40;;;;;;5051149;28;19909;-78
2021/01/22 03:35:22;;;;;;;;;;;4.70;89.60;;;;;;5052474;28;19912;-79
2021/01/22 03:37:48;;;;;;;;;;;4.70;89.90;;;;;;5052774;28;20003;-80
2021/01/22 03:40:15;;;;;;;;;;;4.70;89.70;;;;;;5052402;28;20793;-77
2021/01/22 03:42:41;;;;;;;;;;;4.60;89.70;;;;;;5035220;28;19909;-79
2021/01/22 03:45:07;;;;;;;;;;;4.60;90.00;;;;;;5052468;28;19913;-77
2021/01/22 03:47:33;;;;;;;;;;;4.70;90.00;;;;;;5053296;28;19924;-77
2021/01/22 03:49:59;;;;;;;;;;;4.70;90.00;;;;;;5052177;28;19999;-79
2021/01/22 03:52:25;;;;;;;;;;;4.70;90.00;;;;;;5052864;28;19935;-78
2021/01/22 03:54:50;;;;;;;;;;;4.60;90.00;;;;;;5034862;28;20368;-77
2021/01/22 03:57:16;;;;;;;;;;;4.60;90.00;;;;;;5036098;28;19913;-77
2021/01/22 03:59:41;;;;;;;;;;;4.60;90.00;;;;;;5034347;28;19912;-77
2021/01/22 04:02:07;;;;;;;;;;;4.60;90.10;;;;;;5034620;28;19904;-79
2021/01/22 04:04:32;;;;;;;;;;;4.60;90.10;;;;;;5018318;28;19925;-80
2021/01/22 04:06:58;;;;;;;;;;;4.60;90.00;;;;;;5033929;28;19917;-79
2021/01/22 04:09:24;;;;;;;;;;;4.70;90.00;;;;;;5052171;28;20386;-78
2021/01/22 04:11:49;;;;;;;;;;;4.60;90.00;;;;;;5052621;28;19913;-82
2021/01/22 04:14:15;;;;;;;;;;;4.60;90.00;;;;;;5018400;28;19942;-79
2021/01/22 04:16:40;;;;;;;;;;;4.60;90.10;;;;;;5034645;28;19919;-78
2021/01/22 04:19:06;;;;;;;;;;;4.60;90.10;;;;;;5034121;28;19961;-78
2021/01/22 04:21:31;;;;;;;;;;;4.60;90.10;;;;;;5034760;28;19920;-78
2021/01/22 04:23:57;;;;;;;;;;;4.60;90.00;;;;;;5034149;28;19934;-79
2021/01/22 04:26:23;;;;;;;;;;;4.50;90.00;;;;;;5051543;28;20276;-80
2021/01/22 04:28:48;;;;;;;;;;;4.60;90.10;;;;;;5052821;28;19905;-78
2021/01/22 04:31:14;;;;;;;;;;;4.60;90.10;;;;;;5052284;28;19972;-78
2021/01/22 04:33:39;;;;;;;;;;;4.50;90.10;;;;;;5053045;28;19951;-79
2021/01/22 04:36:06;;;;;;;;;;;4.50;90.10;;;;;;5052326;28;20391;-79
2021/01/22 04:38:31;;;;;;;;;;;4.50;90.10;;;;;;5018920;28;19913;-78
2021/01/22 04:40:57;;;;;;;;;;;4.50;90.20;;;;;;5033777;28;19912;-78
2021/01/22 04:43:23;;;;;;;;;;;4.50;90.20;;;;;;5034655;28;19912;-78
2021/01/22 04:45:48;;;;;;;;;;;4.50;90.20;;;;;;5035262;28;19913;-78
2021/01/22 04:48:14;;;;;;;;;;;4.60;90.30;;;;;;5034556;28;19913;-79
2021/01/22 04:50:40;;;;;;;;;;;4.60;90.30;;;;;;5042781;28;19913;-79
2021/01/22 04:53:09;;;;;;;;;;;4.60;90.20;;;;;;5038581;28;20406;-77
2021/01/22 04:55:36;;;;;;;;;;;4.70;90.20;;;;;;5056403;28;19909;-79
2021/01/22 04:58:03;;;;;;;;;;;4.60;90.20;;;;;;5055961;28;19954;-78
2021/01/22 05:00:28;;;;;;;;;;;4.70;90.20;;;;;;5038565;28;19909;-79
2021/01/22 05:02:54;;;;;;;;;;;4.70;90.10;;;;;;5056355;28;19916;-78
2021/01/22 05:05:20;;;;;;;;;;;4.70;90.10;;;;;;5055828;28;19923;-79
2021/01/22 05:07:46;;;;;;;;;;;4.70;90.10;;;;;;5038806;28;19904;-77
2021/01/22 05:10:11;;;;;;;;;;;4.60;90.10;;;;;;5038133;28;20050;-79
2021/01/22 05:12:37;;;;;;;;;;;4.60;90.20;;;;;;5038258;28;19916;-78
2021/01/22 05:15:12;;;;;;;;;;;4.70;90.10;;;;;;5020460;28;19923;-78
2021/01/22 05:17:56;;;;;;;;;;;4.70;90.10;;;;;;5055815;28;19916;-79
2021/01/22 05:20:27;;;;;;;;;;;4.70;90.10;;;;;;5055319;28;19905;-78
2021/01/22 05:22:53;;;;;;;;;;;4.70;90.10;;;;;;5057695;28;20360;-77
2021/01/22 05:25:18;;;;;;;;;;;4.80;90.10;;;;;;5056813;28;19909;-78
2021/01/22 05:27:54;;;;;;;;;;;4.80;90.00;;;;;;5022306;28;19909;-78
2021/01/22 05:30:21;;;;;;;;;;;4.80;90.00;;;;;;5055009;28;19992;-79
2021/01/22 05:32:47;;;;;;;;;;;4.80;90.00;;;;;;5022398;28;19912;-80
2021/01/22 05:35:26;;;;;;;;;;;4.80;90.30;;;;;;5033243;28;19919;-79
2021/01/22 05:37:51;;;;;;;;;;;4.80;90.10;;;;;;5049475;28;19948;-79
2021/01/22 05:40:17;;;;;;;;;;;4.90;90.10;;;;;;5036595;28;19947;-79
2021/01/22 05:42:50;;;;;;;;;;;4.80;90.00;;;;;;5055040;28;20287;-80
2021/01/22 05:45:16;;;;;;;;;;;4.90;90.10;;;;;;5036391;28;19968;-79
2021/01/22 05:47:42;;;;;;;;;;;4.80;90.10;;;;;;5036957;28;19917;-78
2021/01/22 05:50:08;;;;;;;;;;;4.80;90.00;;;;;;5020429;28;19966;-79
2021/01/22 05:52:33;;;;;;;;;;;4.80;90.00;;;;;;5037379;28;19912;-79
2021/01/22 05:55:00;;;;;;;;;;;4.80;90.00;;;;;;5054630;28;20269;-79
2021/01/22 05:57:37;;;;;;;;;;;4.90;90.10;;;;;;5053789;28;19966;-77
2021/01/22 06:00:12;;;;;;;;;;;4.90;90.10;;;;;;5036662;28;19916;-80
2021/01/22 06:02:38;;;;;;;;;;;4.90;90.10;;;;;;5054530;28;19966;-77
2021/01/22 06:05:11;;;;;;;;;;;4.90;90.10;;;;;;5036110;28;20348;-81
2021/01/22 06:07:41;;;;;;;;;;;4.90;90.10;;;;;;5054918;28;19913;-80
2021/01/22 06:10:14;;;;;;;;;;;4.90;90.30;;;;;;5036020;28;19999;-80
2021/01/22 06:12:43;;;;;;;;;;;4.90;90.10;;;;;;5054736;28;19905;-79
2021/01/22 06:15:10;;;;;;;;;;;4.90;90.10;;;;;;5053883;28;19995;-80
2021/01/22 06:17:37;;;;;;;;;;;4.90;90.10;;;;;;5020209;28;19921;-78
2021/01/22 06:20:02;;;;;;;;;;;4.90;90.10;;;;;;5036419;28;20365;-79
2021/01/22 06:22:30;;;;;;;;;;;4.90;90.10;;;;;;5036544;28;19907;-79
2021/01/22 06:24:57;;;;;;;;;;;4.90;90.00;;;;;;5052389;28;19905;-79
2021/01/22 06:27:23;;;;;;;;;;;5.00;90.10;;;;;;5036529;28;20382;-79
2021/01/22 06:29:50;;;;;;;;;;;5.00;90.00;;;;;;5054228;28;19964;-77
2021/01/22 06:32:16;;;;;;;;;;;5.00;90.10;;;;;;5053565;28;19999;-78
2021/01/22 06:34:43;;;;;;;;;;;5.10;90.10;;;;;;5035423;28;19909;-79
2021/01/22 06:37:09;;;;;;;;;;;5.20;90.00;;;;;;5053895;28;20053;-81
2021/01/22 06:39:35;;;;;;;;;;;5.20;90.00;;;;;;5053647;28;20042;-79
2021/01/22 06:42:02;;;;;;;;;;;5.20;90.20;;;;;;5035850;28;20378;-78
2021/01/22 06:44:28;;;;;;;;;;;5.20;90.00;;;;;;5035627;28;20235;-79
2021/01/22 06:46:54;;;;;;;;;;;5.20;89.90;;;;;;5036881;28;20368;-78
2021/01/22 06:49:30;;;;;;;;;;;5.20;89.90;;;;;;5019741;28;19919;-80
2021/01/22 06:52:08;;;;;;;;;;;5.20;89.90;;;;;;5054566;28;19999;-79
2021/01/22 06:54:33;;;;;;;;;;;5.20;89.70;;;;;;5054006;28;19912;-78
2021/01/22 06:57:02;;;;;;;;;;;5.30;89.70;;;;;;5036129;28;20354;-80
2021/01/22 06:59:34;;;;;;;;;;;5.30;89.70;;;;;;5035560;28;19909;-79
2021/01/22 07:02:00;;;;;;;;;;;5.30;89.60;;;;;;5036105;28;19951;-82
2021/01/22 07:04:29;;;;;;;;;;;5.30;89.60;;;;;;5018956;28;19927;-80
2021/01/22 07:06:56;;;;;;;;;;;5.40;89.60;;;;;;5036062;28;19920;-79
2021/01/22 07:09:22;;;;;;;;;;;5.40;89.60;;;;;;5036062;28;19912;-80
2021/01/22 07:11:51;;;;;;;;;;;5.40;89.50;;;;;;5035565;28;19912;-80
2021/01/22 07:14:33;;;;;;;;;;;5.50;89.60;;;;;;5053363;28;19908;-82
2021/01/22 07:17:03;;;;;;;;;;;5.60;89.40;;;;;;5053816;28;20384;-77
2021/01/22 07:19:30;;;;;;;;;;;5.70;89.50;;;;;;5035821;28;20010;-78
2021/01/22 07:21:55;;;;;;;;;;;5.70;89.40;;;;;;5033511;28;19908;-78
2021/01/22 07:24:21;;;;;;;;;;;5.70;89.00;;;;;;5052011;28;19912;-79
2021/01/22 07:26:50;;;;;;;;;;;5.70;89.20;;;;;;5051595;28;20422;-83
2021/01/22 07:29:17;;;;;;;;;;;5.70;89.10;;;;;;5033138;28;19967;-81
2021/01/22 07:31:55;;;;;;;;;;;5.60;89.10;;;;;;5052170;28;19931;-79
2021/01/22 07:34:39;;;;;;;;;;;5.50;89.10;;;;;;5019195;28;19963;-80
2021/01/22 07:37:16;;;;;;;;;;;5.60;89.30;;;;;;5035657;28;19911;-78
2021/01/22 07:39:42;;;;;;;;;;;5.50;89.30;;;;;;5068373;28;19951;-78
2021/01/22 07:42:15;;;;;;;;;;;5.60;89.40;;;;;;5053441;28;19955;-78
2021/01/22 07:44:42;;;;;;;;;;;5.50;89.70;;;;;;5034593;28;20434;-78
2021/01/22 07:47:08;;;;;;;;;;;5.60;89.30;;;;;;5053033;28;20352;-78
2021/01/22 07:49:34;;;;;;;;;;;5.50;89.30;;;;;;5018767;28;19916;-78
2021/01/22 07:52:05;;;;;;;;;;;5.50;89.20;;;;;;5052144;28;19909;-80
2021/01/22 07:54:41;;;;;;;;;;;5.60;89.40;;;;;;5019071;28;19920;-78
2021/01/22 07:57:17;;;;;;;;;;;5.60;89.20;;;;;;5055296;28;20387;-78
2021/01/22 07:59:43;;;;;;;;;;;5.50;89.00;;;;;;5038276;28;20004;-78
2021/01/22 08:02:14;;;;;;;;;;;5.50;89.10;;;;;;5057541;28;19958;-78
2021/01/22 08:04:42;;;;;;;;;;;5.60;89.10;;;;;;5041747;28;19919;-78
2021/01/22 08:07:08;;;;;;;;;;;5.60;89.00;;;;;;5041733;28;19962;-78
2021/01/22 08:09:34;;;;;;;;;;;5.70;89.10;;;;;;5041701;28;20368;-79
2021/01/22 08:12:10;;;;;;;;;;;5.70;88.70;;;;;;5037251;28;19995;-79
2021/01/22 08:14:36;;;;;;;;;;;5.70;88.80;;;;;;5035205;28;19915;-78
2021/01/22 08:17:05;;;;;;;;;;;5.70;88.70;;;;;;5054024;28;19920;-80
2021/01/22 08:19:32;;;;;;;;;;;5.70;88.60;;;;;;5037566;28;19913;-79
2021/01/22 08:21:58;;;;;;;;;;;5.70;88.60;;;;;;5039546;28;19905;-79
2021/01/22 08:24:24;;;;;;;;;;;5.70;88.60;;;;;;5042589;28;20395;-79
2021/01/22 08:27:00;;;;;;;;;;;5.80;88.70;;;;;;5045554;28;19921;-81
2021/01/22 08:29:26;;;;;;;;;;;5.90;88.70;;;;;;5042452;28;19912;-83
2021/01/22 08:31:53;;;;;;;;;;;5.90;88.60;;;;;;5045160;28;19908;-79
2021/01/22 08:34:20;;;;;;;;;;;5.90;88.70;;;;;;5060614;28;19924;-79
2021/01/22 08:36:46;;;;;;;;;;;6.00;88.60;;;;;;5058831;28;19909;-80
2021/01/22 08:39:12;;;;;;;;;;;6.00;88.50;;;;;;5029965;28;19921;-79
2021/01/22 08:41:37;;;;;;;;;;;5.90;88.30;;;;;;5059521;28;20451;-80
2021/01/22 08:44:03;;;;;;;;;;;5.90;88.40;;;;;;5043686;28;19947;-78
2021/01/22 08:46:29;;;;;;;;;;;5.90;88.50;;;;;;5060247;28;19919;-80
2021/01/22 08:48:54;;;;;;;;;;;5.90;88.30;;;;;;5039252;28;19912;-79
2021/01/22 08:51:27;;;;;;;;;;;5.90;88.40;;;;;;5052538;28;19916;-79
2021/01/22 08:53:53;;;;;;;;;;;6.10;88.50;;;;;;5025922;28;19904;-80
2021/01/22 08:56:21;;;;;;;;;;;6.20;88.50;;;;;;5040768;28;19915;-80
2021/01/22 08:58:56;;;;;;;;;;;6.30;88.30;;;;;;5043500;28;19916;-79
2021/01/22 09:01:21;;;;;;;;;;;6.40;87.90;;;;;;5050792;28;19928;-80
2021/01/22 09:03:47;;;;;;;;;;;6.40;87.70;;;;;;5050579;28;19905;-79
2021/01/22 09:06:12;;;;;;;;;;;6.40;87.90;;;;;;5036744;28;20291;-79
2021/01/22 09:08:54;;;;;;;;;;;6.40;87.70;;;;;;5071900;28;19956;-81
2021/01/22 09:11:38;;;;;;;;;;;6.40;87.70;;;;;;5055610;28;19935;-78
2021/01/22 09:14:04;;;;;;;;;;;6.60;87.70;;;;;;5051184;28;20024;-82
2021/01/22 09:16:29;;;;;;;;;;;6.60;87.70;;;;;;5071557;28;19916;-81
2021/01/22 09:18:59;;;;;;;;;;;6.70;87.40;;;;;;5052365;28;19908;-79
2021/01/22 09:21:24;;;;;;;;;;;6.90;87.30;;;;;;5055414;28;19915;-80
2021/01/22 09:23:50;;;;;;;;;;;6.90;86.90;;;;;;5068509;28;19991;-81
2021/01/22 09:26:16;;;;;;;;;;;7.00;86.60;;;;;;5025585;28;19932;-81
2021/01/22 09:28:42;;;;;;;;;;;6.90;86.10;;;;;;5064021;28;20266;-81
2021/01/22 09:31:08;;;;;;;;;;;6.90;86.00;;;;;;5027546;28;19921;-80
2021/01/22 09:33:33;;;;;;;;;;;7.00;86.10;;;;;;5019955;28;19909;-79
2021/01/22 09:35:59;;;;;;;;;;;7.00;85.90;;;;;;4999659;28;19917;-80
2021/01/22 09:38:25;;;;;;;;;;;7.00;85.80;;;;;;5003722;28;19909;-80
2021/01/22 09:40:51;;;;;;;;;;;6.90;85.60;;;;;;5018789;28;19910;-80
2021/01/22 09:43:17;;;;;;;;;;;6.90;86.00;;;;;;5018023;28;19924;-81
2021/01/22 09:45:43;;;;;;;;;;;6.90;86.00;;;;;;5012698;28;20003;-80
2021/01/22 09:48:09;;;;;;;;;;;7.00;86.10;;;;;;5016169;28;19945;-80
2021/01/22 09:50:34;;;;;;;;;;;7.10;86.50;;;;;;5016601;28;20350;-80
2021/01/22 09:53:00;;;;;;;;;;;7.20;85.70;;;;;;5016015;28;19913;-79
2021/01/22 09:55:26;;;;;;;;;;;7.10;84.80;;;;;;5011692;28;19906;-80
2021/01/22 09:57:51;;;;;;;;;;;7.10;85.10;;;;;;5017845;28;20396;-81
2021/01/22 10:00:17;;;;;;;;;;;7.10;84.90;;;;;;5016642;28;20000;-81
2021/01/22 10:02:43;;;;;;;;;;;7.10;85.00;;;;;;5015592;28;19909;-83
2021/01/22 10:05:09;;;;;;;;;;;7.10;85.20;;;;;;5016076;28;19963;-81
2021/01/22 10:07:35;;;;;;;;;;;7.20;85.40;;;;;;5015395;28;19921;-81
2021/01/22 10:10:00;;;;;;;;;;;7.20;85.00;;;;;;5016730;28;20169;-80
2021/01/22 10:12:26;;;;;;;;;;;7.20;84.60;;;;;;5014293;28;19913;-81
2021/01/22 10:14:51;;;;;;;;;;;7.20;84.80;;;;;;5010207;28;19913;-80
2021/01/22 10:17:17;;;;;;;;;;;7.30;84.80;;;;;;5015474;28;20308;-79
2021/01/22 10:19:42;;;;;;;;;;;7.40;84.70;;;;;;5014417;28;19928;-84
2021/01/22 10:22:08;;;;;;;;;;;7.50;84.50;;;;;;5014759;28;19912;-80
2021/01/22 10:24:33;;;;;;;;;;;7.50;84.20;;;;;;5015051;28;19909;-80
2021/01/22 10:26:59;;;;;;;;;;;7.70;84.50;;;;;;5013790;28;19910;-81
2021/01/22 10:29:24;;;;;;;;;;;7.80;84.40;;;;;;5014619;28;19941;-79
2021/01/22 10:31:50;;;;;;;;;;;7.90;84.70;;;;;;5037737;28;19909;-81
2021/01/22 10:34:16;;;;;;;;;;;8.30;84.30;;;;;;5020593;28;19909;-80
2021/01/22 10:36:42;;;;;;;;;;;8.70;84.10;;;;;;5037756;28;19904;-81
2021/01/22 10:39:07;;;;;;;;;;;9.00;83.10;;;;;;5037565;28;19947;-79
2021/01/22 10:41:33;;;;;;;;;;;9.10;81.70;;;;;;5038095;28;19960;-81
2021/01/22 10:43:59;;;;;;;;;;;9.30;81.70;;;;;;5038129;28;20261;-81
2021/01/22 10:46:24;;;;;;;;;;;9.30;80.50;;;;;;5021464;28;20395;-80
2021/01/22 10:48:50;;;;;;;;;;;9.40;80.20;;;;;;5037617;28;19931;-81
2021/01/22 10:51:16;;;;;;;;;;;9.40;79.70;;;;;;5038210;28;19913;-80
2021/01/22 10:53:41;;;;;;;;;;;9.20;78.30;;;;;;5021895;28;19909;-79
2021/01/22 10:56:07;;;;;;;;;;;9.10;78.80;;;;;;5038739;28;19913;-80
2021/01/22 10:58:33;;;;;;;;;;;9.00;78.90;;;;;;5038664;28;20383;-80
2021/01/22 11:00:58;;;;;;;;;;;9.00;79.10;;;;;;5056705;28;19931;-80
2021/01/22 11:03:24;;;;;;;;;;;8.90;79.40;;;;;;5057374;28;19909;-80
2021/01/22 11:05:50;;;;;;;;;;;9.00;79.80;;;;;;5039225;28;19916;-82
2021/01/22 11:08:15;;;;;;;;;;;9.00;79.30;;;;;;5041174;28;19912;-82
2021/01/22 11:10:41;;;;;;;;;;;9.10;79.60;;;;;;5053009;28;19947;-81
2021/01/22 11:13:06;;;;;;;;;;;9.10;79.30;;;;;;5054284;28;19901;-81
2021/01/22 11:15:34;;;;;;;;;;;9.20;79.10;;;;;;5053818;28;19897;-79
2021/01/22 11:18:00;;;;;;;;;;;9.30;79.40;;;;;;5052873;28;19913;-81
2021/01/22 11:20:26;;;;;;;;;;;9.60;79.60;;;;;;5054023;28;19911;-81
2021/01/22 11:22:51;;;;;;;;;;;10.00;79.30;;;;;;5071561;28;19971;-80
2021/01/22 11:25:17;;;;;;;;;;;10.20;78.60;;;;;;5049308;28;19927;-81
2021/01/22 11:27:43;;;;;;;;;;;10.10;77.30;;;;;;5032070;28;20015;-81
2021/01/22 11:30:09;;;;;;;;;;;10.00;76.20;;;;;;5023542;28;19917;-80
2021/01/22 11:32:35;;;;;;;;;;;9.90;76.10;;;;;;5053908;28;19909;-82
2021/01/22 11:35:01;;;;;;;;;;;9.80;75.50;;;;;;5054992;28;20379;-81
2021/01/22 11:37:26;;;;;;;;;;;9.80;75.60;;;;;;5022157;28;19916;-81
2021/01/22 11:39:52;;;;;;;;;;;9.80;75.90;;;;;;5064147;28;19932;-85
2021/01/22 11:42:17;;;;;;;;;;;9.80;76.10;;;;;;5047929;28;19913;-80
2021/01/22 11:44:44;;;;;;;;;;;9.70;75.60;;;;;;5063699;28;19920;-79
2021/01/22 11:47:09;;;;;;;;;;;9.60;75.50;;;;;;5045219;28;19920;-81
2021/01/22 11:49:35;;;;;;;;;;;9.50;76.20;;;;;;5028324;28;19916;-81
2021/01/22 11:52:00;;;;;;;;;;;9.40;76.20;;;;;;5057177;28;19913;-81
2021/01/22 11:54:26;;;;;;;;;;;9.30;76.20;;;;;;5036273;28;19916;-82
2021/01/22 11:56:51;;;;;;;;;;;9.30;77.00;;;;;;5036652;28;20004;-83
2021/01/22 11:59:18;;;;;;;;;;;9.30;77.00;;;;;;5043378;28;19912;-82
2021/01/22 12:01:43;;;;;;;;;;;9.30;76.80;;;;;;5057228;28;19908;-81
2021/01/22 12:04:09;;;;;;;;;;;9.30;77.10;;;;;;5036663;28;19908;-81
2021/01/22 12:06:34;;;;;;;;;;;9.40;77.40;;;;;;5022013;28;19913;-81
2021/01/22 12:09:00;;;;;;;;;;;9.40;77.10;;;;;;5039734;28;19913;-81
2021/01/22 12:11:28;;;;;;;;;;;9.40;76.60;;;;;;5038189;28;20305;-81
2021/01/22 12:13:54;;;;;;;;;;;9.40;76.20;;;;;;5036789;28;19916;-82
2021/01/22 12:16:19;;;;;;;;;;;9.50;76.40;;;;;;5021149;28;19909;-83
2021/01/22 12:18:45;;;;;;;;;;;9.50;76.10;;;;;;5055131;28;19912;-81
2021/01/22 12:21:11;;;;;;;;;;;9.60;75.60;;;;;;5036312;28;19909;-81
2021/01/22 12:23:36;;;;;;;;;;;9.70;75.00;;;;;;5020507;28;19958;-81
2021/01/22 12:26:02;;;;;;;;;;;9.80;75.30;;;;;;5038321;28;19936;-82
2021/01/22 12:28:28;;;;;;;;;;;9.90;75.50;;;;;;5020133;28;20280;-80
2021/01/22 12:30:53;;;;;;;;;;;9.90;75.20;;;;;;5035765;28;19925;-82
2021/01/22 12:33:19;;;;;;;;;;;10.10;75.50;;;;;;5036215;28;19912;-81
2021/01/22 12:35:49;;;;;;;;;;;10.10;74.20;;;;;;5053404;28;19911;-80
2021/01/22 12:38:18;;;;;;;;;;;10.00;73.60;;;;;;5034985;28;19916;-81
2021/01/22 12:40:43;;;;;;;;;;;10.00;73.80;;;;;;5035705;28;19915;-81
2021/01/22 12:43:09;;;;;;;;;;;10.00;73.80;;;;;;5035515;28;19905;-80
2021/01/22 12:45:34;;;;;;;;;;;10.00;73.50;;;;;;5035851;28;20007;-81
2021/01/22 12:48:00;;;;;;;;;;;10.00;72.80;;;;;;5019204;28;19916;-84
2021/01/22 12:50:26;;;;;;;;;;;10.00;72.80;;;;;;5035842;28;19995;-80
2021/01/22 12:52:51;;;;;;;;;;;10.00;72.10;;;;;;5053524;28;20367;-81
2021/01/22 12:55:17;;;;;;;;;;;9.90;72.40;;;;;;5053385;28;19959;-80
2021/01/22 12:57:42;;;;;;;;;;;9.90;71.90;;;;;;5053396;28;20009;-80
2021/01/22 13:00:08;;;;;;;;;;;9.90;72.40;;;;;;5018851;28;19917;-81
2021/01/22 13:02:34;;;;;;;;;;;10.00;72.50;;;;;;5019535;28;19948;-79
2021/01/22 13:04:59;;;;;;;;;;;10.00;71.70;;;;;;5018904;28;19995;-83
2021/01/22 13:07:25;;;;;;;;;;;9.90;71.60;;;;;;5034904;28;19921;-80
2021/01/22 13:09:51;;;;;;;;;;;9.90;71.90;;;;;;5057530;28;19913;-79
2021/01/22 13:12:16;;;;;;;;;;;10.00;72.50;;;;;;5056080;28;19992;-80
2021/01/22 13:14:42;;;;;;;;;;;10.00;71.80;;;;;;5038241;28;19909;-80
2021/01/22 13:17:08;;;;;;;;;;;9.90;72.10;;;;;;5020391;28;19921;-80
2021/01/22 13:19:33;;;;;;;;;;;9.70;71.70;;;;;;5020782;28;20272;-79
2021/01/22 13:22:00;;;;;;;;;;;9.70;71.20;;;;;;5037474;28;20349;-81
2021/01/22 13:24:25;;;;;;;;;;;9.60;72.80;;;;;;5037518;28;19909;-79
2021/01/22 13:26:51;;;;;;;;;;;9.50;72.30;;;;;;5037768;28;19913;-79
2021/01/22 13:29:17;;;;;;;;;;;9.60;72.50;;;;;;5020858;28;20410;-82
2021/01/22 13:31:44;;;;;;;;;;;9.60;72.60;;;;;;5034041;28;19927;-79
2021/01/22 13:34:09;;;;;;;;;;;9.60;73.00;;;;;;5034927;28;19905;-81
2021/01/22 13:36:35;;;;;;;;;;;9.50;72.30;;;;;;5035157;28;19916;-80
2021/01/22 13:39:00;;;;;;;;;;;9.50;72.80;;;;;;5034995;28;19913;-81
2021/01/22 13:41:26;;;;;;;;;;;9.50;72.40;;;;;;5034723;28;19971;-81
2021/01/22 13:43:51;;;;;;;;;;;9.50;73.20;;;;;;5035755;28;19951;-79
2021/01/22 13:46:17;;;;;;;;;;;9.50;73.50;;;;;;5038159;28;19916;-79
2021/01/22 13:48:42;;;;;;;;;;;9.60;73.10;;;;;;5034581;28;19917;-79
2021/01/22 13:51:08;;;;;;;;;;;9.70;72.60;;;;;;5034951;28;20369;-80
2021/01/22 13:53:34;;;;;;;;;;;9.60;71.50;;;;;;5034712;28;19941;-79
2021/01/22 13:55:59;;;;;;;;;;;9.60;72.70;;;;;;5017961;28;19952;-79
2021/01/22 13:58:25;;;;;;;;;;;9.70;72.80;;;;;;5017677;28;20114;-79
2021/01/22 14:00:50;;;;;;;;;;;9.70;73.50;;;;;;5035997;28;19937;-79
2021/01/22 14:03:16;;;;;;;;;;;9.60;73.50;;;;;;5034435;28;19909;-80
2021/01/22 14:05:41;;;;;;;;;;;9.70;72.10;;;;;;5033957;28;19931;-79
2021/01/22 14:08:07;;;;;;;;;;;9.60;72.30;;;;;;5035815;28;19971;-83
2021/01/22 14:10:32;;;;;;;;;;;9.60;71.20;;;;;;5035310;28;19917;-79
2021/01/22 14:12:58;;;;;;;;;;;9.60;71.70;;;;;;5017515;28;19918;-78
2021/01/22 14:15:23;;;;;;;;;;;9.50;71.30;;;;;;5017782;28;19920;-78
2021/01/22 14:17:49;;;;;;;;;;;9.40;73.20;;;;;;5034024;28;20379;-78
2021/01/22 14:20:14;;;;;;;;;;;9.40;73.80;;;;;;5033181;28;19917;-79
2021/01/22 14:22:40;;;;;;;;;;;9.50;73.20;;;;;;5034141;28;19905;-77
2021/01/22 14:25:06;;;;;;;;;;;9.40;74.20;;;;;;5035158;28;19999;-79